This is the latest recevied weather packets stored in our database for station/object PE1RXF-13. If no packets are shown the sender has not sent any weather packets the latest 10 day(s).
| Time | Temp. | Humidity | Pressure | Rain* | Wind** | Luminosity | Snow |
|---|---|---|---|---|---|---|---|
| 1788596126 | 19.44° C | 99% | 1015.2 hPa | 0 mm | - | 91 W/m² | - |
| 1788593921 | 16.11° C | 99% | 1014.9 hPa | 0 mm | - | 30 W/m² | - |
| 1788592818 | 16.67° C | 99% | 1014.6 hPa | 0 mm | - | 28 W/m² | - |
| 1788591714 | 16.67° C | 99% | 1014.4 hPa | 0 mm | - | 49 W/m² | - |
| 1788590612 | 15.56° C | 99% | 1014.2 hPa | 0 mm | - | 18 W/m² | - |
| 1788589509 | 15.56° C | 99% | 1014.1 hPa | 0 mm | - | 47 W/m² | - |
| 1788588405 | 14.44° C | 99% | 1014 hPa | 0 mm | - | 19 W/m² | - |
| 1788586200 | 13.33° C | 99% | 1013.8 hPa | 0 mm | - | 5 W/m² | - |
| 1788561934 | 14.44° C | 99% | 1012.1 hPa | 0 mm | - | 0 W/m² | - |
| 1788542080 | 16.11° C | 99% | 1009.1 hPa | 0 mm | - | 4 W/m² | - |
| 1788540976 | 16.67° C | 99% | 1008.9 hPa | 0 mm | - | 11 W/m² | - |
| 1788538770 | 17.22° C | 99% | 1008.4 hPa | 0 mm | - | 19 W/m² | - |
| 1788537667 | 17.22° C | 99% | 1008.5 hPa | 0 mm | - | 12 W/m² | - |
| 1788535461 | 17.22° C | 99% | 1007.8 hPa | 0 mm | - | 27 W/m² | - |
| 1788533255 | 17.78° C | 99% | 1007.6 hPa | 0.76 mm | - | 41 W/m² | - |
| 1788532152 | 17.78° C | 99% | 1007.2 hPa | 0.76 mm | - | 44 W/m² | - |
| 1788531049 | 17.78° C | 99% | 1007.2 hPa | 0.76 mm | - | 63 W/m² | - |
| 1788527740 | 17.22° C | 99% | 1006.4 hPa | 1.27 mm | - | 37 W/m² | - |
| 1788524431 | 16.67° C | 99% | 1006.6 hPa | 0.76 mm | - | 28 W/m² | - |
| 1788521122 | 18.89° C | 99% | 1006.1 hPa | 4.06 mm | - | 42 W/m² | - |
| 1788517813 | 19.44° C | 99% | 1005.9 hPa | 0.76 mm | - | 82 W/m² | - |
| 1788516710 | 19.44° C | 99% | 1005.7 hPa | 0.76 mm | - | 35 W/m² | - |
| 1788513401 | 20° C | 99% | 1005.1 hPa | 0 mm | - | 38 W/m² | - |
| 1788512298 | 20° C | 99% | 1005.2 hPa | 0 mm | - | 63 W/m² | - |
| 1788511195 | 20° C | 99% | 1005.3 hPa | 0.51 mm | - | 56 W/m² | - |
* Rain latest hour (hover to see other rain measurements)
** Current wind speed in m/s (hover to see current wind gust speed)